Airfield :
LOGIN :

Register | Disclaimer

   EN    FR    IT 

 










Legend :    VFR   Marginal VFR   IFR   Intensive IFR   Very Intensive IFR
Visi :
Ceiling :
>= 8 km
>= 3000ft
5 to 8 km
1000 to 3000 ft
1500m to 5 km
500 to 1000 ft
800 to 1500m
200 to 500 ft
< 800m
< 200 ft
Symbols :   Thunderstorms  Fog  Heavy snow  Heavy precipitations  Wind > 20 kt
SIGMETs :     Misc.  Thunderstorms  Icing  Turbulence  Mountain Waves  Volcanic Ashes







- Airport Elevation : 102 ft
- IATA code : CNG
- Download approach charts


LFBG - Cognac

CURRENT METAR :
  • 180500Z AUTO 00000KT CAVOK 16/13 Q1017 NOSIG

EXPIRED METARs :
  • 180430Z AUTO 35002KT CAVOK 16/13 Q1017
  • 180400Z AUTO 02003KT CAVOK 16/13 Q1017
  • 180330Z AUTO 03001KT CAVOK 16/13 Q1018
  • 180300Z AUTO 05002KT CAVOK 16/13 Q1017
  • 180230Z AUTO 04003KT CAVOK 16/14 Q1018

TAF TAF LFBG
Valid from the 18 at 03:00 until the 19 at 03:00 UTC


180200Z 1803/1903 01006KT CAVOK
PROB30
TEMPO 1816/1820 4000 SHRA SCT070CB
No reported NOTAMs for that airfield.



MET'MAP, your aeronautical weather chart ! - Copyright ORBIFLY December 2007 - Disclaimer

ORBIFLY MET'MAP TEAM :

Programming & Development : Alexandra Zaïnal
Concept & Development : Baudouin d'Aumeries
Co-Development & Prog : Marc-Olivier Méhu
Technical & hardware support : Manuel Goepfert

Contact : metmap@orbifly.com




SOURCES & CREDITS :

   NOAA